KHEFKDYB

Guest
Details From KHEF - Manassas Rgnl
To KDYB - SUMMERVILLE
Flight Number -
Tags generated
Created
Modified
Stats Distance 370 nm / 686 km
Max Altitude 34,000 ft / 10,363 m
Waypoints 7
Social Downloads 2
Likes 0
Share VATSIM

Download

Looking for another format? Having issues loading an existing format? Contact us
Advertisement - Login to hide

Notes

Basic altitude profile: - Ascent Rate: 3000ft/min - Ascent Speed: 375kts - Cruise Altitude: 35000ft - Cruise Speed: 447kts - Descent Rate: 1800ft/min - Descent Speed: 230kts Options: - Use NATs: yes - Use PACOTS: yes - Use low airways: no - Use high airways: yes

Route

KHEF CREWE J51 TUBAS J55 FLO KDYB

ID Type Via Altitude Latitude Longitude Leg Dist Tot Dist Heading (true) Name
O KHEF APT - 0 ft / 0 m 38.72157˚ -77.51587˚ - 0 nm - Manassas Rgnl
CREWE FIX - 34,000 ft / 10,363 m 37.02301˚ -78.21767˚ 107 nm 107 nm 198° / 198° -
FOZZY FIX J51 (AWY-HI) 34,000 ft / 10,363 m 36.37374˚ -78.70897˚ 45 nm 152 nm 211° / 211° -
FLOPS FIX J51 (AWY-HI) 34,000 ft / 10,363 m 35.70370˚ -79.20588˚ 46 nm 199 nm 211° / 211° -
TUBAS FIX J51 (AWY-HI) 28,400 ft / 8,656 m 35.16607˚ -79.59754˚ 37 nm 237 nm 211° / 211° -
FLO VOR J55 (AWY-HI) 18,000 ft / 5,486 m 34.23297˚ -79.65717˚ 56 nm 293 nm 183° / 183° FLORENCE VORTAC
O KDYB APT - 0 ft / 0 m 33.06343˚ -80.27932˚ 76 nm 370 nm 204° / 204° SUMMERVILLE

Altitude Profile

Advertisement - Login to hide

Weather


0- 5 10 15 20 25 30 35+ Temperature / ° C

Clouds and Precipitation
Forecast for 2017-12-17 00:00 UTC. Updated 2 hours ago

Ground ~20,000 ft ~40,000 ft Winds

KHEF

Details ICAO KHEF
Name Manassas Rgnl
Region United States
Timezone America/New_York (UTC-5.0)
Stats Elevation 192 ft / 59 m (AMSL)
Location 38.721572° -77.515875°
Runways 2
Magnetic Variation 10.511° W

METAR

KHEF 170056Z 00000KT 10SM CLR M03/M06 A3016 RMK AO2 SLP225 T10281056 FZRANO

Decode

TAF

Not found

Departure Runways

ID Width Length Bearing (true) Bearing (mag) Surface Threshold Offset Overrun Length
16L 98 ft / 30 m 5,706 ft / 1,739 m 150.71° 161.22° Asphalt 0 ft / 0 m 151 ft / 46 m
16R 98 ft / 30 m 3,706 ft / 1,130 m 150.70° 161.21° Asphalt 0 ft / 0 m 0 ft / 0 m
34L 98 ft / 30 m 3,706 ft / 1,130 m 330.70° 341.21° Asphalt 0 ft / 0 m 0 ft / 0 m
34R 98 ft / 30 m 5,706 ft / 1,739 m 330.72° 341.23° Asphalt 0 ft / 0 m 151 ft / 46 m

KDYB

Details ICAO KDYB
Name SUMMERVILLE
Region United States
Timezone America/New_York (UTC-5.0)
Stats Elevation 56 ft / 17 m (AMSL)
Location 33.063435° -80.279324°
Runways 1
Magnetic Variation 7.766° W

METAR

KDYB 170115Z AUTO 00000KT 10SM CLR 03/01 A3031 RMK AO1

Decode

TAF

Not found

Destination Runways

ID Width Length Bearing (true) Bearing (mag) Surface Threshold Offset Overrun Length
06 75 ft / 23 m 3,701 ft / 1,128 m 48.93° 56.70° Asphalt 0 ft / 0 m 0 ft / 0 m
24 75 ft / 23 m 3,701 ft / 1,128 m 228.93° 236.70° Asphalt 0 ft / 0 m 0 ft / 0 m